createdAt,value
2022-10-09T00:01:28.847Z,1.08
2022-10-09T00:03:58.840Z,1.08
2022-10-09T00:06:31.156Z,0.90
2022-10-09T00:09:01.879Z,1.00
2022-10-09T00:11:32.802Z,1.25
2022-10-09T00:14:01.391Z,0.80
2022-10-09T00:16:29.798Z,0.95
2022-10-09T00:18:59.090Z,1.00
2022-10-09T00:21:30.990Z,1.20
2022-10-09T00:24:01.607Z,1.40
2022-10-09T00:26:29.719Z,0.85
2022-10-09T00:28:57.591Z,1.00
2022-10-09T00:31:25.960Z,0.90
2022-10-09T00:33:53.799Z,1.35
2022-10-09T00:36:25.422Z,1.05
2022-10-09T00:38:56.099Z,1.10
2022-10-09T00:41:28.585Z,1.08
2022-10-09T00:43:59.659Z,1.00
2022-10-09T00:46:35.832Z,1.25
2022-10-09T00:49:18.487Z,1.05
2022-10-09T00:51:49.292Z,1.15
2022-10-09T00:54:25.299Z,0.90
2022-10-09T00:56:54.394Z,0.90
2022-10-09T00:59:23.876Z,0.80
2022-10-09T01:01:51.746Z,0.93
2022-10-09T01:04:19.717Z,1.23
2022-10-09T01:07:11.773Z,0.93
2022-10-09T01:09:50.635Z,0.82
2022-10-09T01:12:30.333Z,0.90
2022-10-09T01:15:12.922Z,2.45
2022-10-09T01:17:50.838Z,1.13
2022-10-09T01:20:39.666Z,1.10
2022-10-09T01:23:42.464Z,0.93
2022-10-09T01:26:41.557Z,0.88
2022-10-09T01:29:13.407Z,1.02
2022-10-09T01:31:46.348Z,3.20
2022-10-09T01:34:17.483Z,1.17
2022-10-09T01:36:47.216Z,1.63
2022-10-09T01:39:19.724Z,1.05
2022-10-09T01:41:50.183Z,0.98
2022-10-09T01:44:21.664Z,1.55
2022-10-09T01:46:49.695Z,1.73
2022-10-09T01:49:34.502Z,1.38
2022-10-09T01:52:11.763Z,0.90
2022-10-09T01:54:54.581Z,1.00
2022-10-09T01:57:30.292Z,1.17
2022-10-09T02:00:04.442Z,1.20
2022-10-09T02:02:32.680Z,3.25
2022-10-09T02:05:01.699Z,0.98
2022-10-09T02:07:32.295Z,1.40
2022-10-09T02:10:03.159Z,1.00
2022-10-09T02:12:38.079Z,1.20
2022-10-09T02:15:09.930Z,0.90
2022-10-09T02:17:44.711Z,0.90
2022-10-09T02:20:21.484Z,1.60
2022-10-09T02:22:50.765Z,1.00
2022-10-09T02:25:19.652Z,1.00
2022-10-09T02:27:47.970Z,1.10
2022-10-09T02:30:18.834Z,1.08
2022-10-09T02:32:46.886Z,1.10
2022-10-09T02:35:14.862Z,1.02
2022-10-09T02:37:42.632Z,1.05
2022-10-09T02:40:12.020Z,1.17
2022-10-09T02:42:39.800Z,1.00
2022-10-09T02:45:09.982Z,0.90
2022-10-09T02:47:39.025Z,1.00
2022-10-09T02:50:08.942Z,0.90
2022-10-09T02:52:36.686Z,1.00
2022-10-09T02:55:04.817Z,2.42
2022-10-09T02:57:32.620Z,1.02
2022-10-09T03:00:00.360Z,0.98
2022-10-09T03:02:28.139Z,1.30
2022-10-09T03:04:57.425Z,1.02
2022-10-09T03:07:25.235Z,1.10
2022-10-09T03:09:52.970Z,1.05
2022-10-09T03:12:22.094Z,0.95
2022-10-09T03:14:49.853Z,0.93
2022-10-09T03:17:17.797Z,1.60
2022-10-09T03:19:45.537Z,1.23
2022-10-09T03:22:14.618Z,0.93
2022-10-09T03:24:42.322Z,1.17
2022-10-09T03:27:10.043Z,1.00
2022-10-09T03:29:37.788Z,1.25
2022-10-09T03:32:05.590Z,1.50
2022-10-09T03:34:33.355Z,1.00
2022-10-09T03:37:01.094Z,1.00
2022-10-09T03:39:30.206Z,0.90
2022-10-09T03:41:57.929Z,1.65
2022-10-09T03:44:25.704Z,1.13
2022-10-09T03:46:53.614Z,0.73
2022-10-09T03:49:21.416Z,0.98
2022-10-09T03:51:49.191Z,1.52
2022-10-09T03:54:16.936Z,0.88
2022-10-09T03:56:46.021Z,1.10
2022-10-09T03:59:13.893Z,1.00
2022-10-09T04:01:41.667Z,1.23
2022-10-09T04:04:09.409Z,0.95
2022-10-09T04:06:37.201Z,1.20
2022-10-09T04:09:05.188Z,1.10
2022-10-09T04:11:32.946Z,0.90
2022-10-09T04:14:03.042Z,1.15
2022-10-09T04:16:30.841Z,1.30
2022-10-09T04:18:58.625Z,1.27
2022-10-09T04:21:26.512Z,1.38
2022-10-09T04:23:55.407Z,1.00
2022-10-09T04:26:23.247Z,1.00
2022-10-09T04:28:51.009Z,0.98
2022-10-09T04:31:20.200Z,1.38
2022-10-09T04:33:47.972Z,1.10
2022-10-09T04:36:16.079Z,1.08
2022-10-09T04:38:43.820Z,0.88
2022-10-09T04:41:11.704Z,1.00
2022-10-09T04:43:39.910Z,0.90
2022-10-09T04:46:09.796Z,1.10
2022-10-09T04:48:44.058Z,0.93
2022-10-09T04:51:12.441Z,0.90
2022-10-09T04:53:40.948Z,0.85
2022-10-09T04:56:16.767Z,1.00
2022-10-09T04:58:45.840Z,0.73
2022-10-09T05:01:17.665Z,1.08
2022-10-09T05:03:46.876Z,1.00
2022-10-09T05:06:15.970Z,0.93
2022-10-09T05:08:44.390Z,0.90
2022-10-09T05:11:15.270Z,0.90
2022-10-09T05:13:46.487Z,1.10
2022-10-09T05:16:18.622Z,1.08
2022-10-09T05:18:50.163Z,0.82
2022-10-09T05:21:19.422Z,0.88
2022-10-09T05:23:47.508Z,0.70
2022-10-09T05:26:18.058Z,1.20
2022-10-09T05:28:46.458Z,0.93
2022-10-09T05:31:20.488Z,1.15
2022-10-09T05:33:50.039Z,0.80
2022-10-09T05:36:18.195Z,0.88
2022-10-09T05:38:46.319Z,1.35
2022-10-09T05:41:16.745Z,0.98
2022-10-09T05:43:49.005Z,1.13
2022-10-09T05:46:19.541Z,1.10
2022-10-09T05:48:55.058Z,0.90
2022-10-09T05:51:25.704Z,1.27
2022-10-09T05:53:54.667Z,0.93
2022-10-09T05:56:25.014Z,0.93
2022-10-09T05:58:55.734Z,1.00
2022-10-09T06:01:26.494Z,0.90
2022-10-09T06:03:57.918Z,0.80
2022-10-09T06:06:28.783Z,0.90
2022-10-09T06:08:57.313Z,0.93
2022-10-09T06:11:29.182Z,0.90
2022-10-09T06:13:57.747Z,0.70
2022-10-09T06:16:28.620Z,1.10
2022-10-09T06:21:27.372Z,0.77
2022-10-09T06:23:57.507Z,1.00
2022-10-09T06:26:29.064Z,1.20
2022-10-09T06:28:58.382Z,1.02
2022-10-09T06:31:28.934Z,0.98
2022-10-09T06:34:01.142Z,2.63
2022-10-09T06:36:32.987Z,0.93
2022-10-09T06:39:02.465Z,0.88
2022-10-09T06:41:31.624Z,0.90
2022-10-09T06:44:02.216Z,1.10
2022-10-09T06:46:34.539Z,0.73
2022-10-09T06:49:05.531Z,1.10
2022-10-09T06:54:05.040Z,0.77
2022-10-09T06:56:33.513Z,0.80
2022-10-09T06:59:02.067Z,0.90
2022-10-09T07:01:32.249Z,0.90
2022-10-09T07:04:04.064Z,0.80
2022-10-09T07:06:34.681Z,0.88
2022-10-09T07:09:06.711Z,1.10
2022-10-09T07:11:36.705Z,0.80
2022-10-09T07:14:08.358Z,1.05
2022-10-09T07:16:39.408Z,0.98
2022-10-09T07:19:11.247Z,1.05
2022-10-09T07:21:42.564Z,0.88
2022-10-09T07:24:11.347Z,0.73
2022-10-09T07:26:42.433Z,1.33
2022-10-09T07:29:14.453Z,4.18
2022-10-09T07:31:42.334Z,0.80
2022-10-09T07:34:11.813Z,1.05
2022-10-09T07:36:39.567Z,0.90
2022-10-09T07:39:07.996Z,0.80
2022-10-09T07:41:36.187Z,0.75
2022-10-09T07:44:04.396Z,1.08
2022-10-09T07:46:33.942Z,0.95
2022-10-09T07:49:02.398Z,1.00
2022-10-09T07:51:32.880Z,0.60
2022-10-09T07:54:02.014Z,0.75
2022-10-09T07:56:32.367Z,0.80
2022-10-09T07:59:02.523Z,0.80
2022-10-09T08:01:32.250Z,15.48
2022-10-09T08:04:01.353Z,0.68
2022-10-09T08:06:31.842Z,0.75
2022-10-09T08:09:01.605Z,0.80
2022-10-09T08:11:31.029Z,0.70
2022-10-09T08:13:59.218Z,0.70
2022-10-09T08:16:29.374Z,0.65
2022-10-09T08:18:59.882Z,0.80
2022-10-09T08:21:28.298Z,0.77
2022-10-09T08:23:59.949Z,0.60
2022-10-09T08:26:30.803Z,0.60
2022-10-09T08:29:01.435Z,0.70
2022-10-09T08:31:30.314Z,0.85
2022-10-09T08:34:00.941Z,0.57
2022-10-09T08:36:29.759Z,1.85
2022-10-09T08:38:59.304Z,0.93
2022-10-09T08:41:45.804Z,1.25
2022-10-09T08:44:21.359Z,0.70
2022-10-09T08:47:00.358Z,1.48
2022-10-09T08:49:39.671Z,1.38
2022-10-09T08:52:25.644Z,3.83
2022-10-09T08:55:01.895Z,0.70
2022-10-09T08:57:35.259Z,1.95
2022-10-09T09:00:03.044Z,2.65
2022-10-09T09:02:50.898Z,0.77
2022-10-09T09:05:34.840Z,2.67
2022-10-09T09:08:16.939Z,0.85
2022-10-09T09:10:55.281Z,0.93
2022-10-09T09:13:44.815Z,5.80
2022-10-09T09:16:24.499Z,1.73
2022-10-09T09:19:14.278Z,0.90
2022-10-09T09:21:51.131Z,1.15
2022-10-09T09:24:21.708Z,1.00
2022-10-09T09:26:56.419Z,0.60
2022-10-09T09:29:27.241Z,0.95
2022-10-09T09:32:02.100Z,0.80
2022-10-09T09:34:39.997Z,2.22
2022-10-09T09:37:12.066Z,1.10
2022-10-09T09:42:30.693Z,0.90
2022-10-09T09:45:04.930Z,0.60
2022-10-09T09:47:39.616Z,2.50
2022-10-09T09:50:23.350Z,0.75
2022-10-09T09:52:58.017Z,0.80
2022-10-09T09:55:30.735Z,1.27
2022-10-09T09:58:06.455Z,1.00
2022-10-09T10:00:36.392Z,0.98
2022-10-09T10:03:13.327Z,0.80
2022-10-09T10:05:44.014Z,0.80
2022-10-09T10:08:21.904Z,1.00
2022-10-09T10:10:53.194Z,0.57
2022-10-09T10:13:28.514Z,0.77
2022-10-09T10:15:58.652Z,0.68
2022-10-09T10:18:32.239Z,0.80
2022-10-09T10:21:07.252Z,1.38
2022-10-09T10:23:40.431Z,1.95
2022-10-09T10:26:22.713Z,0.95
2022-10-09T10:29:00.241Z,1.70
2022-10-09T10:31:44.145Z,1.67
2022-10-09T10:34:22.143Z,1.13
2022-10-09T10:37:02.500Z,8.10
2022-10-09T10:39:40.935Z,2.10
2022-10-09T10:42:19.953Z,0.77
2022-10-09T10:44:59.417Z,0.80
2022-10-09T10:47:33.143Z,0.73
2022-10-09T10:50:01.830Z,2.25
2022-10-09T10:52:52.634Z,4.45
2022-10-09T10:55:39.936Z,1.08
2022-10-09T10:58:24.739Z,4.70
2022-10-09T11:01:14.997Z,2.92
2022-10-09T11:04:06.753Z,1.05
2022-10-09T11:06:45.298Z,1.27
2022-10-09T11:09:25.907Z,7.13
2022-10-09T11:12:03.627Z,1.17
2022-10-09T11:14:47.115Z,1.48
2022-10-09T11:17:27.850Z,1.38
2022-10-09T11:20:16.341Z,1.55
2022-10-09T11:23:06.158Z,1.33
2022-10-09T11:25:49.624Z,2.88
2022-10-09T11:28:23.793Z,2.85
2022-10-09T11:31:01.987Z,4.45
2022-10-09T11:33:37.782Z,1.38
2022-10-09T11:36:15.315Z,1.95
2022-10-09T11:38:47.797Z,3.90
2022-10-09T11:41:16.688Z,1.63
2022-10-09T11:44:04.557Z,1.45
2022-10-09T11:46:45.214Z,1.23
2022-10-09T11:49:25.115Z,1.67
2022-10-09T11:52:02.331Z,0.93
2022-10-09T11:54:30.964Z,2.35
2022-10-09T11:57:00.981Z,1.58
2022-10-09T11:59:31.439Z,0.93
2022-10-09T12:02:02.126Z,1.33
2022-10-09T12:07:34.305Z,1.17
2022-10-09T12:10:08.161Z,3.72
2022-10-09T12:12:38.666Z,1.20
2022-10-09T12:15:27.119Z,1.00
2022-10-09T12:17:55.054Z,0.80
2022-10-09T12:20:27.107Z,1.60
2022-10-09T12:23:25.314Z,2.10
2022-10-09T12:25:49.977Z,1.85
2022-10-09T12:28:28.208Z,0.80
2022-10-09T12:31:00.556Z,1.08
2022-10-09T12:33:35.758Z,1.23
2022-10-09T12:36:14.572Z,0.82
2022-10-09T12:38:43.567Z,0.90
2022-10-09T12:41:21.755Z,1.45
2022-10-09T12:43:51.543Z,1.48
2022-10-09T12:46:29.660Z,1.55
2022-10-09T12:48:59.039Z,0.93
2022-10-09T12:51:32.864Z,1.17
2022-10-09T12:54:00.674Z,0.90
2022-10-09T12:56:33.584Z,0.95
2022-10-09T12:59:02.789Z,0.90
2022-10-09T13:01:32.114Z,1.13
2022-10-09T13:04:03.472Z,0.70
2022-10-09T13:06:43.915Z,0.95
2022-10-09T13:09:26.433Z,1.50
2022-10-09T13:11:59.795Z,0.80
2022-10-09T13:14:35.882Z,0.80
2022-10-09T13:17:03.990Z,1.10
2022-10-09T13:19:35.316Z,2.45
2022-10-09T13:22:24.156Z,1.63
2022-10-09T13:24:54.279Z,0.88
2022-10-09T13:27:25.808Z,0.50
2022-10-09T13:29:53.919Z,0.90
2022-10-09T13:32:24.165Z,1.00
2022-10-09T13:34:55.182Z,1.17
2022-10-09T13:37:27.238Z,1.00
2022-10-09T13:39:57.692Z,1.15
2022-10-09T13:42:28.329Z,0.70
2022-10-09T13:44:56.088Z,2.95
2022-10-09T13:47:24.782Z,0.70
2022-10-09T13:49:52.861Z,1.15
2022-10-09T13:52:20.590Z,0.65
2022-10-09T13:54:49.965Z,0.70
2022-10-09T13:57:17.901Z,0.55
2022-10-09T13:59:45.725Z,0.70
2022-10-09T14:02:13.798Z,1.08
2022-10-09T14:04:41.859Z,0.75
2022-10-09T14:07:09.953Z,0.65
2022-10-09T14:09:37.857Z,0.60
2022-10-09T14:12:07.109Z,0.60
2022-10-09T14:14:35.186Z,1.25
2022-10-09T14:17:02.943Z,0.90
2022-10-09T14:19:30.776Z,1.00
2022-10-09T14:21:59.230Z,0.70
2022-10-09T14:24:27.298Z,0.80
2022-10-09T14:26:55.040Z,0.63
2022-10-09T14:29:24.245Z,1.27
2022-10-09T14:31:52.403Z,0.60
2022-10-09T14:34:20.217Z,1.35
2022-10-09T14:36:48.829Z,0.70
2022-10-09T14:39:17.274Z,0.70
2022-10-09T14:41:45.808Z,1.17
2022-10-09T14:44:13.941Z,1.85
2022-10-09T14:46:43.083Z,0.85
2022-10-09T14:49:12.366Z,0.60
2022-10-09T14:51:41.891Z,0.63
2022-10-09T14:54:11.743Z,0.80
2022-10-09T14:56:39.826Z,0.68
2022-10-09T14:59:07.658Z,0.70
2022-10-09T15:01:35.691Z,0.73
2022-10-09T15:04:06.281Z,1.75
2022-10-09T15:06:34.852Z,0.70
2022-10-09T15:09:05.685Z,0.95
2022-10-09T15:11:35.784Z,0.80
2022-10-09T15:14:04.686Z,0.80
2022-10-09T15:16:32.632Z,0.85
2022-10-09T15:19:00.569Z,3.38
2022-10-09T15:21:32.880Z,2.22
2022-10-09T15:24:03.787Z,1.63
2022-10-09T15:29:04.081Z,1.05
2022-10-09T15:31:34.654Z,2.05
2022-10-09T15:34:03.926Z,0.75
2022-10-09T15:36:37.007Z,2.05
2022-10-09T15:39:07.681Z,3.05
2022-10-09T15:41:38.153Z,1.73
2022-10-09T15:44:09.064Z,2.88
2022-10-09T15:49:04.581Z,0.70
2022-10-09T15:51:33.991Z,0.90
2022-10-09T15:54:02.641Z,1.15
2022-10-09T15:56:33.866Z,2.72
2022-10-09T15:59:05.134Z,1.20
2022-10-09T16:01:32.986Z,6.20
2022-10-09T16:04:00.831Z,3.45
2022-10-09T16:06:28.612Z,2.45
2022-10-09T16:08:59.393Z,1.55
2022-10-09T16:11:27.317Z,5.30
2022-10-09T16:13:56.245Z,1.05
2022-10-09T16:16:27.535Z,5.47
2022-10-09T16:18:56.725Z,4.65
2022-10-09T16:21:28.274Z,1.92
2022-10-09T16:23:59.772Z,5.10
2022-10-09T16:26:29.155Z,7.60
2022-10-09T16:28:56.964Z,5.32
2022-10-09T16:31:30.111Z,7.47
2022-10-09T16:33:58.477Z,5.75
2022-10-09T16:36:26.349Z,3.63
2022-10-09T16:38:54.418Z,10.48
2022-10-09T16:41:24.987Z,4.32
2022-10-09T16:43:55.470Z,3.30
2022-10-09T16:46:26.951Z,5.03
2022-10-09T16:48:57.546Z,2.75
2022-10-09T16:51:29.188Z,1.85
2022-10-09T16:54:00.209Z,3.53
2022-10-09T16:56:33.228Z,7.80
2022-10-09T16:59:04.162Z,3.80
2022-10-09T17:04:01.547Z,2.65
2022-10-09T17:06:29.447Z,2.15
2022-10-09T17:09:00.142Z,2.67
2022-10-09T17:11:32.273Z,4.57
2022-10-09T17:14:00.110Z,10.75
2022-10-09T17:16:31.491Z,3.00
2022-10-09T17:18:59.771Z,1.35
2022-10-09T17:21:32.857Z,3.25
2022-10-09T17:24:04.932Z,4.22
2022-10-09T17:26:34.647Z,3.83
2022-10-09T17:29:03.652Z,117.40
2022-10-09T17:31:32.022Z,136.65
2022-10-09T17:34:03.108Z,104.15
2022-10-09T17:36:34.459Z,71.93
2022-10-09T17:39:02.587Z,45.17
2022-10-09T17:41:30.866Z,35.00
2022-10-09T17:44:00.603Z,28.90
2022-10-09T17:46:30.481Z,21.67
2022-10-09T17:48:59.631Z,20.60
2022-10-09T17:51:30.986Z,16.20
2022-10-09T17:54:03.979Z,19.33
2022-10-09T17:56:34.340Z,19.38
2022-10-09T17:59:04.454Z,20.08
2022-10-09T18:01:32.707Z,15.38
2022-10-09T18:04:00.835Z,16.38
2022-10-09T18:06:33.368Z,16.02
2022-10-09T18:09:01.633Z,17.77
2022-10-09T18:11:30.078Z,13.98
2022-10-09T18:13:58.330Z,15.55
2022-10-09T18:16:35.903Z,15.55
2022-10-09T18:19:09.617Z,15.18
2022-10-09T18:21:38.554Z,14.35
2022-10-09T18:24:06.926Z,15.52
2022-10-09T18:26:35.356Z,16.05
2022-10-09T18:29:03.905Z,12.85
2022-10-09T18:31:33.437Z,11.77
2022-10-09T18:34:01.883Z,14.43
2022-10-09T18:36:33.481Z,13.65
2022-10-09T18:39:05.383Z,12.45
2022-10-09T18:41:33.705Z,11.98
2022-10-09T18:44:02.722Z,10.60
2022-10-09T18:46:38.834Z,14.23
2022-10-09T18:49:09.677Z,12.25
2022-10-09T18:51:39.676Z,11.45
2022-10-09T18:54:09.106Z,14.65
2022-10-09T18:56:38.423Z,12.05
2022-10-09T18:59:11.832Z,15.38
2022-10-09T19:01:41.296Z,12.00
2022-10-09T19:04:10.032Z,7.93
2022-10-09T19:06:38.129Z,11.57
2022-10-09T19:09:06.547Z,11.73
2022-10-09T19:11:36.213Z,8.77
2022-10-09T19:14:04.327Z,8.60
2022-10-09T19:16:35.400Z,11.85
2022-10-09T19:19:05.948Z,8.80
2022-10-09T19:21:33.804Z,8.95
2022-10-09T19:24:04.562Z,9.18
2022-10-09T19:26:33.120Z,10.20
2022-10-09T19:29:01.201Z,8.70
2022-10-09T19:31:29.115Z,7.45
2022-10-09T19:33:57.368Z,9.43
2022-10-09T19:36:26.747Z,9.20
2022-10-09T19:38:54.799Z,7.63
2022-10-09T19:41:22.659Z,9.15
2022-10-09T19:43:50.440Z,9.25
2022-10-09T19:46:20.811Z,8.93
2022-10-09T19:48:48.592Z,8.60
2022-10-09T19:51:20.104Z,8.32
2022-10-09T19:53:52.000Z,8.25
2022-10-09T19:56:22.758Z,9.13
2022-10-09T19:58:50.815Z,8.43
2022-10-09T20:01:21.922Z,11.02
2022-10-09T20:03:55.465Z,8.73
2022-10-09T20:06:23.366Z,9.48
2022-10-09T20:08:53.243Z,6.97
2022-10-09T20:11:21.755Z,8.52
2022-10-09T20:13:55.798Z,7.65
2022-10-09T20:16:28.000Z,8.88
2022-10-09T20:18:56.982Z,8.90
2022-10-09T20:21:24.968Z,6.15
2022-10-09T20:23:56.772Z,8.70
2022-10-09T20:26:25.855Z,5.32
2022-10-09T20:28:54.835Z,8.63
2022-10-09T20:31:26.892Z,5.55
2022-10-09T20:33:56.002Z,7.55
2022-10-09T20:36:27.659Z,6.90
2022-10-09T20:38:59.058Z,6.82
2022-10-09T20:41:28.748Z,7.20
2022-10-09T20:43:59.022Z,9.57
2022-10-09T20:46:31.226Z,6.45
2022-10-09T20:48:59.649Z,6.30
2022-10-09T20:51:27.915Z,7.82
2022-10-09T20:54:00.390Z,5.70
2022-10-09T20:56:31.205Z,7.20
2022-10-09T20:59:00.498Z,9.82
2022-10-09T21:01:29.801Z,7.38
2022-10-09T21:03:59.991Z,6.30
2022-10-09T21:06:30.051Z,9.20
2022-10-09T21:08:59.856Z,7.25
2022-10-09T21:11:28.035Z,9.93
2022-10-09T21:13:55.995Z,8.48
2022-10-09T21:16:25.875Z,9.90
2022-10-09T21:19:00.579Z,8.35
2022-10-09T21:21:29.961Z,9.88
2022-10-09T21:24:01.717Z,7.25
2022-10-09T21:26:31.502Z,6.95
2022-10-09T21:29:00.078Z,6.22
2022-10-09T21:31:32.350Z,8.45
2022-10-09T21:34:02.157Z,10.13
2022-10-09T21:36:41.075Z,7.35
2022-10-09T21:39:20.438Z,8.10
2022-10-09T21:41:48.703Z,7.28
2022-10-09T21:44:16.512Z,7.38
2022-10-09T21:46:44.295Z,7.45
2022-10-09T21:49:23.270Z,8.77
2022-10-09T21:51:51.575Z,7.70
2022-10-09T21:54:21.917Z,7.80
2022-10-09T21:56:49.783Z,7.50
2022-10-09T21:59:17.615Z,8.63
2022-10-09T22:01:45.489Z,8.10
2022-10-09T22:04:13.399Z,7.28
2022-10-09T22:06:43.198Z,10.25
2022-10-09T22:09:11.094Z,6.88
2022-10-09T22:11:40.286Z,6.35
2022-10-09T22:14:08.642Z,5.00
2022-10-09T22:16:36.622Z,6.60
2022-10-09T22:19:04.565Z,6.47
2022-10-09T22:21:32.703Z,5.80
2022-10-09T22:24:00.782Z,5.68
2022-10-09T22:26:28.534Z,6.03
2022-10-09T22:28:57.648Z,7.10
2022-10-09T22:31:28.220Z,5.43
2022-10-09T22:33:59.959Z,5.72
2022-10-09T22:36:30.661Z,5.65
2022-10-09T22:39:01.106Z,6.18
2022-10-09T22:41:30.860Z,8.85
2022-10-09T22:44:01.965Z,6.28
2022-10-09T22:46:33.045Z,4.82
2022-10-09T22:49:01.350Z,6.85
2022-10-09T22:51:30.916Z,8.00
2022-10-09T22:54:00.330Z,5.43
2022-10-09T22:56:31.141Z,5.82
2022-10-09T22:59:00.527Z,5.40
2022-10-09T23:01:33.348Z,4.95
2022-10-09T23:04:03.987Z,4.88
2022-10-09T23:06:32.287Z,8.77
2022-10-09T23:09:00.430Z,5.20
2022-10-09T23:11:28.406Z,4.65
2022-10-09T23:13:58.970Z,7.40
2022-10-09T23:16:30.547Z,5.15
2022-10-09T23:19:05.445Z,6.10
2022-10-09T23:21:34.432Z,4.25
2022-10-09T23:24:02.188Z,4.97
2022-10-09T23:26:33.427Z,6.22
2022-10-09T23:29:04.747Z,6.68
2022-10-09T23:31:34.533Z,4.57
2022-10-09T23:34:03.438Z,5.45
2022-10-09T23:36:31.301Z,4.55
2022-10-09T23:39:01.740Z,6.78
2022-10-09T23:41:30.164Z,4.20
2022-10-09T23:43:58.163Z,5.15
2022-10-09T23:46:28.992Z,6.60
2022-10-09T23:51:27.567Z,4.88
2022-10-09T23:53:55.495Z,5.28
2022-10-09T23:56:27.444Z,3.63
2022-10-09T23:58:56.985Z,6.43
